createdAt,value
2022-09-28T00:05:49.854Z,2.17
2022-09-28T00:13:25.647Z,2.17
2022-09-28T00:21:04.327Z,1.90
2022-09-28T00:28:39.346Z,1.90
2022-09-28T00:36:13.011Z,1.65
2022-09-28T00:43:48.075Z,1.80
2022-09-28T00:51:22.219Z,2.00
2022-09-28T00:58:59.986Z,2.37
2022-09-28T01:06:35.767Z,2.00
2022-09-28T01:14:14.250Z,1.95
2022-09-28T01:21:53.543Z,1.80
2022-09-28T01:29:38.195Z,1.80
2022-09-28T01:37:17.636Z,1.90
2022-09-28T01:44:56.688Z,1.75
2022-09-28T01:52:34.764Z,1.90
2022-09-28T02:00:12.861Z,2.13
2022-09-28T02:07:54.512Z,2.10
2022-09-28T02:15:34.759Z,2.60
2022-09-28T02:23:10.414Z,2.85
2022-09-28T02:30:46.014Z,2.42
2022-09-28T02:38:19.739Z,2.90
2022-09-28T02:46:05.046Z,3.13
2022-09-28T03:01:29.797Z,2.65
2022-09-28T03:09:08.922Z,2.85
2022-09-28T03:16:46.329Z,3.03
2022-09-28T03:24:20.092Z,3.40
2022-09-28T03:31:55.145Z,3.42
2022-09-28T03:39:28.980Z,3.85
2022-09-28T03:47:04.027Z,3.20
2022-09-28T03:54:37.731Z,2.75
2022-09-28T04:02:12.939Z,3.60
2022-09-28T04:09:46.650Z,3.70
2022-09-28T04:17:21.774Z,4.05
2022-09-28T04:24:55.422Z,3.92
2022-09-28T04:32:30.475Z,3.92
2022-09-28T04:40:04.822Z,10.98
2022-09-28T04:47:39.818Z,12.20
2022-09-28T05:02:49.022Z,5.00
2022-09-28T05:10:23.672Z,4.45
2022-09-28T05:17:58.883Z,4.57
2022-09-28T05:25:32.622Z,4.93
2022-09-28T05:33:09.015Z,5.32
2022-09-28T05:40:42.798Z,5.30
2022-09-28T05:48:18.038Z,4.60
2022-09-28T05:55:51.780Z,4.95
2022-09-28T06:03:27.039Z,4.90
2022-09-28T06:11:02.186Z,5.40
2022-09-28T06:18:37.399Z,4.68
2022-09-28T06:26:11.150Z,5.35
2022-09-28T06:33:46.399Z,5.35
2022-09-28T06:41:20.144Z,5.85
2022-09-28T06:48:55.508Z,4.95
2022-09-28T06:56:32.737Z,4.95
2022-09-28T07:04:08.255Z,4.80
2022-09-28T07:11:42.038Z,4.82
2022-09-28T07:19:17.183Z,6.00
2022-09-28T07:26:51.084Z,4.60
2022-09-28T07:34:26.281Z,4.63
2022-09-28T07:42:03.022Z,3.92
2022-09-28T07:49:38.356Z,4.90
2022-09-28T07:57:12.100Z,4.43
2022-09-28T08:04:47.346Z,5.93
2022-09-28T08:12:21.377Z,6.22
2022-09-28T08:20:13.718Z,5.37
2022-09-28T08:27:47.479Z,5.60
2022-09-28T08:35:22.800Z,5.15
2022-09-28T08:43:01.544Z,4.82
2022-09-28T08:50:42.570Z,3.70
2022-09-28T08:58:23.500Z,3.08
2022-09-28T09:06:08.628Z,2.90
2022-09-28T09:13:57.020Z,2.88
2022-09-28T09:21:41.644Z,1.90
2022-09-28T09:29:30.399Z,1.83
2022-09-28T09:37:29.157Z,1.40
2022-09-28T09:45:41.273Z,1.08
2022-09-28T09:53:24.111Z,1.88
2022-09-28T10:01:07.078Z,1.80
2022-09-28T10:08:47.077Z,0.73
2022-09-28T10:16:21.226Z,0.82
2022-09-28T10:24:02.480Z,0.90
2022-09-28T10:31:41.865Z,0.77
2022-09-28T10:39:39.836Z,2.00
2022-09-28T10:47:18.493Z,1.60
2022-09-28T10:54:55.142Z,1.58
2022-09-28T11:02:35.701Z,1.67
2022-09-28T11:10:21.621Z,2.25
2022-09-28T11:17:55.558Z,2.25
2022-09-28T11:25:31.897Z,2.15
2022-09-28T11:33:12.286Z,1.98
2022-09-28T11:41:00.478Z,2.28
2022-09-28T11:48:40.442Z,1.60
2022-09-28T11:56:23.780Z,1.17
2022-09-28T12:04:03.286Z,1.40
2022-09-28T12:11:43.941Z,1.00
2022-09-28T12:19:21.942Z,0.70
2022-09-28T12:27:01.579Z,0.63
2022-09-28T12:34:35.277Z,0.80
2022-09-28T12:42:21.770Z,0.50
2022-09-28T12:58:19.676Z,0.60
2022-09-28T13:06:21.667Z,0.95
2022-09-28T13:14:05.976Z,0.73
2022-09-28T13:21:47.473Z,0.60
2022-09-28T13:29:24.139Z,0.80
2022-09-28T13:37:20.955Z,0.40
2022-09-28T13:45:38.932Z,0.70
2022-09-28T13:53:30.403Z,1.00
2022-09-28T14:01:10.369Z,0.88
2022-09-28T14:09:24.867Z,0.70
2022-09-28T14:17:50.395Z,0.70
2022-09-28T14:25:27.732Z,0.57
2022-09-28T14:33:02.759Z,0.80
2022-09-28T14:48:48.951Z,0.80
2022-09-28T14:56:23.116Z,0.95
2022-09-28T15:04:01.359Z,0.87
2022-09-28T15:11:35.210Z,1.00
2022-09-28T15:19:22.954Z,1.00
2022-09-28T15:26:57.163Z,0.82
2022-09-28T15:34:51.468Z,1.00
2022-09-28T15:42:25.625Z,1.10
2022-09-28T15:50:03.273Z,1.20
2022-09-28T15:57:39.042Z,1.58
2022-09-28T16:05:34.109Z,1.05
2022-09-28T16:13:15.496Z,1.20
2022-09-28T16:20:53.093Z,0.90
2022-09-28T16:28:51.815Z,1.80
2022-09-28T16:36:30.728Z,2.08
2022-09-28T16:44:04.578Z,1.85
2022-09-28T16:51:40.252Z,2.67
2022-09-28T16:59:14.112Z,2.30
2022-09-28T17:06:49.211Z,2.80
2022-09-28T17:22:02.061Z,3.30
2022-09-28T17:29:35.852Z,4.10
2022-09-28T17:37:15.254Z,2.90
2022-09-28T17:44:48.966Z,3.60
2022-09-28T17:52:24.036Z,2.67
2022-09-28T17:59:58.464Z,2.35
2022-09-28T18:07:34.543Z,2.40
2022-09-28T18:15:09.203Z,2.90
2022-09-28T18:22:44.243Z,2.58
2022-09-28T18:37:53.122Z,2.67
2022-09-28T18:45:26.826Z,2.80
2022-09-28T18:53:11.449Z,2.58
2022-09-28T19:00:45.543Z,3.20
2022-09-28T19:08:25.506Z,3.40
2022-09-28T19:16:01.613Z,3.85
2022-09-28T19:23:37.638Z,3.70
2022-09-28T19:31:12.655Z,4.50
2022-09-28T19:46:21.238Z,4.63
2022-09-28T19:53:56.360Z,5.35
2022-09-28T20:09:06.280Z,5.53
2022-09-28T20:16:39.917Z,6.13
2022-09-28T20:24:16.206Z,6.28
2022-09-28T20:31:49.967Z,6.70
2022-09-28T20:39:24.923Z,6.03
2022-09-28T20:54:33.440Z,6.65
2022-09-28T21:02:07.096Z,6.75
2022-09-28T21:09:42.140Z,5.97
2022-09-28T21:17:15.846Z,4.75
2022-09-28T21:24:50.863Z,4.72
2022-09-28T21:39:59.545Z,4.32
2022-09-28T21:47:33.213Z,3.70
2022-09-28T21:55:10.233Z,3.42
2022-09-28T22:02:44.311Z,3.03
2022-09-28T22:10:19.438Z,2.87
2022-09-28T22:17:53.098Z,2.92
2022-09-28T22:25:28.099Z,3.13
2022-09-28T22:40:38.442Z,3.40
2022-09-28T22:48:12.812Z,3.75
2022-09-28T22:55:47.883Z,4.13
2022-09-28T23:03:21.575Z,4.03
2022-09-28T23:10:56.604Z,3.75
2022-09-28T23:18:32.708Z,3.60
2022-09-28T23:26:15.423Z,4.00
2022-09-28T23:33:49.082Z,4.22
2022-09-28T23:41:24.346Z,3.47
2022-09-28T23:48:57.994Z,4.32
2022-09-28T23:56:33.070Z,4.50
